Time;durP1;ratioP1;P1;durP2;ratioP2;P2;SDS_P1;SDS_P2;PMS_P1;PMS_P2;Temp;Humidity;BMP_temperature;BMP_pressure;BME280_temperature;BME280_humidity;BME280_pressure;Samples;Min_cycle;Max_cycle;Signal;HPM_P1;HPM_P2
2021/06/07 00:01:52;;;;;;;4.65;1.60;;;;;;;;;;5054170;28;20017;-88
2021/06/07 00:04:17;;;;;;;2.83;1.75;;;;;;;;;;5054645;28;20009;-87
2021/06/07 00:06:43;;;;;;;2.55;2.00;;;;;;;;;;5055659;28;20504;-88
2021/06/07 00:09:09;;;;;;;6.20;1.70;;;;;;;;;;5054507;28;20404;-87
2021/06/07 00:11:35;;;;;;;5.95;2.13;;;;;;;;;;5055817;28;20013;-88
2021/06/07 00:14:02;;;;;;;5.25;2.25;;;;;;;;;;5055815;28;20516;-87
2021/06/07 00:16:27;;;;;;;5.60;2.30;;;;;;;;;;5055636;28;20017;-87
2021/06/07 00:18:52;;;;;;;4.35;2.10;;;;;;;;;;5055657;28;20506;-88
2021/06/07 00:21:19;;;;;;;4.57;2.22;;;;;;;;;;5054713;28;20028;-88
2021/06/07 00:23:45;;;;;;;6.18;2.10;;;;;;;;;;5055508;28;20021;-87
2021/06/07 00:26:10;;;;;;;8.65;2.10;;;;;;;;;;5054272;28;20016;-88
2021/06/07 00:28:36;;;;;;;7.82;2.17;;;;;;;;;;5053806;28;20021;-87
2021/06/07 00:31:03;;;;;;;3.70;2.15;;;;;;;;;;5052961;28;20009;-87
2021/06/07 00:33:28;;;;;;;8.50;2.42;;;;;;;;;;5054092;28;20024;-88
2021/06/07 00:35:53;;;;;;;7.07;2.58;;;;;;;;;;5053588;28;20018;-87
2021/06/07 00:38:19;;;;;;;5.63;2.40;;;;;;;;;;5054949;28;20478;-87
2021/06/07 00:40:44;;;;;;;8.27;2.55;;;;;;;;;;5053319;28;20472;-88
2021/06/07 00:43:10;;;;;;;5.40;2.47;;;;;;;;;;5053706;28;20429;-88
2021/06/07 00:45:36;;;;;;;3.97;2.53;;;;;;;;;;5053751;28;20024;-87
2021/06/07 00:48:02;;;;;;;4.55;2.25;;;;;;;;;;5053682;28;20021;-87
2021/06/07 00:50:31;;;;;;;5.15;2.60;;;;;;;;;;5053437;28;20447;-87
2021/06/07 00:53:06;;;;;;;5.43;2.58;;;;;;;;;;5053657;28;20017;-87
2021/06/07 00:55:36;;;;;;;3.78;2.83;;;;;;;;;;5053465;28;20021;-87
2021/06/07 00:58:02;;;;;;;5.10;2.45;;;;;;;;;;5053715;28;20662;-87
2021/06/07 01:00:27;;;;;;;8.35;2.47;;;;;;;;;;5053464;28;20021;-87
2021/06/07 01:02:53;;;;;;;4.60;2.58;;;;;;;;;;5053681;28;20044;-87
2021/06/07 01:05:19;;;;;;;7.63;2.92;;;;;;;;;;5053343;28;20017;-87
2021/06/07 01:07:44;;;;;;;6.05;2.83;;;;;;;;;;5054734;28;20021;-87
2021/06/07 01:10:09;;;;;;;12.10;2.88;;;;;;;;;;5054434;28;20487;-87
2021/06/07 01:12:35;;;;;;;4.70;2.63;;;;;;;;;;5054645;28;20028;-87
2021/06/07 01:15:00;;;;;;;5.75;2.63;;;;;;;;;;5053132;28;20021;-87
2021/06/07 01:17:27;;;;;;;7.93;2.75;;;;;;;;;;5060918;28;20463;-87
2021/06/07 01:19:52;;;;;;;5.60;2.85;;;;;;;;;;5059347;28;20044;-87
2021/06/07 01:22:17;;;;;;;5.57;2.60;;;;;;;;;;5067537;28;20078;-87
2021/06/07 01:24:43;;;;;;;6.90;3.15;;;;;;;;;;5069652;28;20020;-86
2021/06/07 01:27:08;;;;;;;5.95;2.60;;;;;;;;;;5073102;28;20048;-87
2021/06/07 01:29:33;;;;;;;6.60;2.53;;;;;;;;;;5073004;28;20016;-87
2021/06/07 01:31:58;;;;;;;6.35;3.17;;;;;;;;;;5073139;28;20028;-87
2021/06/07 01:34:23;;;;;;;7.10;2.72;;;;;;;;;;5072808;28;20009;-87
2021/06/07 01:36:49;;;;;;;4.95;2.80;;;;;;;;;;5073932;28;20021;-87
2021/06/07 01:39:14;;;;;;;5.60;3.20;;;;;;;;;;5072808;28;20481;-87
2021/06/07 01:41:39;;;;;;;10.45;3.53;;;;;;;;;;5072558;28;20055;-87
2021/06/07 01:44:04;;;;;;;8.07;2.55;;;;;;;;;;5053976;28;20037;-87
2021/06/07 01:46:30;;;;;;;5.80;2.97;;;;;;;;;;5052560;28;20096;-87
2021/06/07 01:48:55;;;;;;;5.25;3.15;;;;;;;;;;5070252;28;20065;-87
2021/06/07 01:51:20;;;;;;;8.02;4.07;;;;;;;;;;5064489;28;20013;-86
2021/06/07 01:53:46;;;;;;;8.00;3.50;;;;;;;;;;5067465;28;20498;-87
2021/06/07 01:56:12;;;;;;;7.70;3.47;;;;;;;;;;5073954;28;20021;-87
2021/06/07 01:58:37;;;;;;;6.40;3.22;;;;;;;;;;5072620;28;20097;-87
2021/06/07 02:01:05;;;;;;;9.32;3.42;;;;;;;;;;5072072;28;20444;-87
2021/06/07 02:03:30;;;;;;;8.68;3.47;;;;;;;;;;5062571;28;20025;-87
2021/06/07 02:05:57;;;;;;;5.88;3.63;;;;;;;;;;5070325;28;20013;-87
2021/06/07 02:08:22;;;;;;;7.82;3.13;;;;;;;;;;5072247;28;20024;-86
2021/06/07 02:10:53;;;;;;;5.35;3.47;;;;;;;;;;5067174;28;20020;-87
2021/06/07 02:13:18;;;;;;;5.32;3.08;;;;;;;;;;5061262;28;20123;-87
2021/06/07 02:15:51;;;;;;;9.02;3.25;;;;;;;;;;5064260;28;20096;-87
2021/06/07 02:18:16;;;;;;;5.38;3.10;;;;;;;;;;5071873;28;20029;-87
2021/06/07 02:20:41;;;;;;;9.77;3.80;;;;;;;;;;5069749;28;20051;-87
2021/06/07 02:23:06;;;;;;;7.78;3.58;;;;;;;;;;5070093;28;20017;-86
2021/06/07 02:25:32;;;;;;;7.90;3.85;;;;;;;;;;5063882;28;20043;-87
2021/06/07 02:27:57;;;;;;;7.90;4.28;;;;;;;;;;5060297;28;20019;-86
2021/06/07 02:30:24;;;;;;;9.00;3.60;;;;;;;;;;5072798;28;20008;-87
2021/06/07 02:32:50;;;;;;;8.05;3.15;;;;;;;;;;5071771;28;20108;-87
2021/06/07 02:35:16;;;;;;;7.30;3.53;;;;;;;;;;5068712;28;20048;-87
2021/06/07 02:37:42;;;;;;;5.38;3.42;;;;;;;;;;5063554;28;20055;-87
2021/06/07 02:40:08;;;;;;;5.40;3.20;;;;;;;;;;5057476;28;20090;-87
2021/06/07 02:42:34;;;;;;;8.02;4.13;;;;;;;;;;5071429;28;20024;-87
2021/06/07 02:44:59;;;;;;;6.55;3.63;;;;;;;;;;5072856;28;20021;-86
2021/06/07 02:47:24;;;;;;;7.13;3.85;;;;;;;;;;5071378;28;20020;-87
2021/06/07 02:49:50;;;;;;;5.88;3.60;;;;;;;;;;5072571;28;20126;-86
2021/06/07 02:52:15;;;;;;;9.45;3.53;;;;;;;;;;5056730;28;20025;-86
2021/06/07 02:54:40;;;;;;;7.72;4.05;;;;;;;;;;5072860;28;20036;-87
2021/06/07 02:57:05;;;;;;;6.30;4.32;;;;;;;;;;5071349;28;20017;-87
2021/06/07 02:59:31;;;;;;;6.63;4.47;;;;;;;;;;5072774;28;20083;-87
2021/06/07 03:01:56;;;;;;;9.18;4.65;;;;;;;;;;5071141;28;20091;-87
2021/06/07 03:04:21;;;;;;;7.40;4.20;;;;;;;;;;5058321;28;20038;-86
2021/06/07 03:06:46;;;;;;;7.68;4.60;;;;;;;;;;5072014;28;20065;-87
2021/06/07 03:09:11;;;;;;;6.28;4.90;;;;;;;;;;5058236;28;20437;-86
2021/06/07 03:11:37;;;;;;;8.35;5.03;;;;;;;;;;5067253;28;20089;-87
2021/06/07 03:14:02;;;;;;;8.27;4.57;;;;;;;;;;5069432;28;20311;-87
2021/06/07 03:16:27;;;;;;;8.23;4.35;;;;;;;;;;5068625;28;20055;-87
2021/06/07 03:18:52;;;;;;;9.20;4.35;;;;;;;;;;5063204;28;20425;-87
2021/06/07 03:21:18;;;;;;;8.95;4.72;;;;;;;;;;5069072;28;20046;-87
2021/06/07 03:23:44;;;;;;;8.57;4.60;;;;;;;;;;5070883;28;20364;-87
2021/06/07 03:26:09;;;;;;;7.75;5.38;;;;;;;;;;5055891;28;20052;-87
2021/06/07 03:28:35;;;;;;;10.60;4.75;;;;;;;;;;5069754;28;20125;-87
2021/06/07 03:31:00;;;;;;;7.85;5.32;;;;;;;;;;5069360;28;20122;-87
2021/06/07 03:33:26;;;;;;;6.07;4.82;;;;;;;;;;5069360;28;20193;-87
2021/06/07 03:35:52;;;;;;;7.43;5.05;;;;;;;;;;5062477;28;20021;-87
2021/06/07 03:38:17;;;;;;;8.07;5.53;;;;;;;;;;5101159;28;20013;-87
2021/06/07 03:40:45;;;;;;;10.73;5.50;;;;;;;;;;5071948;28;20031;-87
2021/06/07 03:43:11;;;;;;;8.60;4.70;;;;;;;;;;5070571;28;20039;-87
2021/06/07 03:45:36;;;;;;;9.02;5.22;;;;;;;;;;5062387;28;20024;-87
2021/06/07 03:48:02;;;;;;;7.70;5.43;;;;;;;;;;5058119;28;20021;-87
2021/06/07 03:50:28;;;;;;;7.43;5.32;;;;;;;;;;5055144;28;20013;-86
2021/06/07 03:52:54;;;;;;;10.25;5.53;;;;;;;;;;5070834;28;20737;-87
2021/06/07 03:55:20;;;;;;;14.32;5.13;;;;;;;;;;5060626;28;20025;-87
2021/06/07 03:57:45;;;;;;;12.52;5.95;;;;;;;;;;5070803;28;20055;-87
2021/06/07 04:00:12;;;;;;;8.70;5.70;;;;;;;;;;5070831;28;20025;-86
2021/06/07 04:02:37;;;;;;;9.20;5.70;;;;;;;;;;5070827;28;20153;-86
2021/06/07 04:05:03;;;;;;;11.02;6.32;;;;;;;;;;5070366;28;20017;-87
2021/06/07 04:07:28;;;;;;;10.32;6.63;;;;;;;;;;5069603;28;20020;-87
2021/06/07 04:09:53;;;;;;;10.73;6.10;;;;;;;;;;5063233;28;20032;-87
2021/06/07 04:12:19;;;;;;;10.10;6.00;;;;;;;;;;5065837;28;20028;-87
2021/06/07 04:14:44;;;;;;;10.07;5.88;;;;;;;;;;5059193;28;20154;-86
2021/06/07 04:17:09;;;;;;;12.23;5.72;;;;;;;;;;5070256;28;20035;-85
2021/06/07 04:19:34;;;;;;;12.45;5.93;;;;;;;;;;5063914;28;20055;-87
2021/06/07 04:22:00;;;;;;;12.95;6.10;;;;;;;;;;5062456;28;20016;-87
2021/06/07 04:24:25;;;;;;;14.05;5.55;;;;;;;;;;5069638;28;20052;-86
2021/06/07 04:26:50;;;;;;;9.75;5.65;;;;;;;;;;5058030;28;20055;-86
2021/06/07 04:29:15;;;;;;;11.38;5.72;;;;;;;;;;5070107;28;20078;-87
2021/06/07 04:31:40;;;;;;;13.32;5.95;;;;;;;;;;5072038;28;20017;-87
2021/06/07 04:34:06;;;;;;;12.75;5.82;;;;;;;;;;5074165;28;20146;-87
2021/06/07 04:36:31;;;;;;;9.48;6.20;;;;;;;;;;5075156;28;20009;-86
2021/06/07 04:38:56;;;;;;;11.75;6.35;;;;;;;;;;5073556;28;20085;-87
2021/06/07 04:41:21;;;;;;;14.15;6.75;;;;;;;;;;5059869;28;20375;-87
2021/06/07 04:43:46;;;;;;;11.93;6.57;;;;;;;;;;5073384;28;20576;-86
2021/06/07 04:46:12;;;;;;;13.75;7.40;;;;;;;;;;5072756;28;20035;-86
2021/06/07 04:48:37;;;;;;;13.80;7.13;;;;;;;;;;5070988;28;20463;-86
2021/06/07 04:51:03;;;;;;;18.75;7.18;;;;;;;;;;5057802;28;20021;-86
2021/06/07 04:53:28;;;;;;;12.55;7.32;;;;;;;;;;5069037;28;20032;-86
2021/06/07 04:55:53;;;;;;;14.90;7.25;;;;;;;;;;5074884;28;20407;-86
2021/06/07 04:58:20;;;;;;;18.83;7.45;;;;;;;;;;5070780;28;20048;-87
2021/06/07 05:00:49;;;;;;;13.20;7.78;;;;;;;;;;5073037;28;20021;-86
2021/06/07 05:03:15;;;;;;;14.40;7.05;;;;;;;;;;5073398;28;20020;-86
2021/06/07 05:05:40;;;;;;;8.88;6.35;;;;;;;;;;5074148;28;20021;-86
2021/06/07 05:08:05;;;;;;;12.77;7.65;;;;;;;;;;5068120;28;20035;-86
2021/06/07 05:10:31;;;;;;;17.63;8.27;;;;;;;;;;5073145;28;20016;-87
2021/06/07 05:12:56;;;;;;;12.00;8.02;;;;;;;;;;5073270;28;20025;-86
2021/06/07 05:15:21;;;;;;;18.45;7.75;;;;;;;;;;5073006;28;20024;-86
2021/06/07 05:17:47;;;;;;;13.73;8.07;;;;;;;;;;5072936;28;20028;-86
2021/06/07 05:20:14;;;;;;;15.23;7.60;;;;;;;;;;5073172;28;20387;-87
2021/06/07 05:22:39;;;;;;;15.82;6.88;;;;;;;;;;5066561;28;20020;-87
2021/06/07 05:25:05;;;;;;;13.35;8.43;;;;;;;;;;5072922;28;20024;-86
2021/06/07 05:27:30;;;;;;;12.32;7.03;;;;;;;;;;5074126;28;20021;-86
2021/06/07 05:29:56;;;;;;;16.98;6.82;;;;;;;;;;5072491;28;20004;-86
2021/06/07 05:32:21;;;;;;;11.13;7.65;;;;;;;;;;5072952;28;20040;-86
2021/06/07 05:34:46;;;;;;;12.23;7.82;;;;;;;;;;5072444;28;20414;-86
2021/06/07 05:37:11;;;;;;;18.85;8.45;;;;;;;;;;5064889;28;20059;-86
2021/06/07 05:39:37;;;;;;;11.95;8.20;;;;;;;;;;5065995;28;20021;-86
2021/06/07 05:42:02;;;;;;;16.67;7.65;;;;;;;;;;5067746;28;20024;-86
2021/06/07 05:44:27;;;;;;;12.82;7.20;;;;;;;;;;5063938;28;20059;-86
2021/06/07 05:46:53;;;;;;;14.32;7.95;;;;;;;;;;5070481;28;20112;-86
2021/06/07 05:49:18;;;;;;;17.13;9.10;;;;;;;;;;5072461;28;20137;-86
2021/06/07 05:51:44;;;;;;;14.52;7.13;;;;;;;;;;5072041;28;20028;-86
2021/06/07 05:54:09;;;;;;;13.00;7.65;;;;;;;;;;5073929;28;20075;-87
2021/06/07 05:56:37;;;;;;;15.88;8.45;;;;;;;;;;5072388;28;20530;-87
2021/06/07 05:59:03;;;;;;;17.25;8.65;;;;;;;;;;5072286;28;20490;-87
2021/06/07 06:01:29;;;;;;;18.40;8.43;;;;;;;;;;5072078;28;20025;-87
2021/06/07 06:03:54;;;;;;;12.88;7.72;;;;;;;;;;5071978;28;20511;-87
2021/06/07 06:06:19;;;;;;;16.50;8.13;;;;;;;;;;5072347;28;20009;-87
2021/06/07 06:08:46;;;;;;;12.30;7.28;;;;;;;;;;5067007;28;20119;-87
2021/06/07 06:11:12;;;;;;;13.88;7.82;;;;;;;;;;5070970;28;20017;-86
2021/06/07 06:13:37;;;;;;;15.75;8.20;;;;;;;;;;5070459;28;20074;-86
2021/06/07 06:16:02;;;;;;;18.77;8.00;;;;;;;;;;5071150;28;20380;-86
2021/06/07 06:18:27;;;;;;;17.35;8.80;;;;;;;;;;5070127;28;20024;-86
2021/06/07 06:20:53;;;;;;;19.15;8.13;;;;;;;;;;5069915;28;20429;-86
2021/06/07 06:23:18;;;;;;;15.07;8.90;;;;;;;;;;5060875;28;20016;-87
2021/06/07 06:25:43;;;;;;;10.43;7.43;;;;;;;;;;5065228;28;20073;-87
2021/06/07 06:28:09;;;;;;;16.13;8.10;;;;;;;;;;5056560;28;20020;-87
2021/06/07 06:30:34;;;;;;;16.92;7.97;;;;;;;;;;5063562;28;20032;-86
2021/06/07 06:32:59;;;;;;;17.00;9.00;;;;;;;;;;5068099;28;20017;-86
2021/06/07 06:35:25;;;;;;;14.90;7.65;;;;;;;;;;5069155;28;20085;-86
2021/06/07 06:37:50;;;;;;;12.77;6.65;;;;;;;;;;5065167;28;20528;-85
2021/06/07 06:40:23;;;;;;;13.45;6.30;;;;;;;;;;5071498;28;20107;-87
2021/06/07 06:42:55;;;;;;;15.35;6.47;;;;;;;;;;5072661;28;20426;-86
2021/06/07 06:45:20;;;;;;;;;;;;;;;;;;5057575;28;20020;-87
2021/06/07 06:47:46;;;;;;;11.68;7.00;;;;;;;;;;5065012;28;19969;-87
2021/06/07 06:50:11;;;;;;;13.68;7.18;;;;;;;;;;5066700;28;20017;-87
2021/06/07 06:52:37;;;;;;;20.25;7.75;;;;;;;;;;5059685;28;20013;-87
2021/06/07 06:55:03;;;;;;;13.73;8.48;;;;;;;;;;5057431;28;20071;-86
2021/06/07 06:57:28;;;;;;;14.18;8.23;;;;;;;;;;5071277;28;20025;-86
2021/06/07 06:59:54;;;;;;;18.33;8.43;;;;;;;;;;5071325;28;20028;-86
2021/06/07 07:02:19;;;;;;;13.80;6.38;;;;;;;;;;5065437;28;20013;-86
2021/06/07 07:04:44;;;;;;;13.23;6.53;;;;;;;;;;5046929;28;20670;-86
2021/06/07 07:07:10;;;;;;;10.13;6.53;;;;;;;;;;5060375;28;20092;-86
2021/06/07 07:09:35;;;;;;;10.15;6.38;;;;;;;;;;5071224;28;20170;-86
2021/06/07 07:12:00;;;;;;;14.70;8.48;;;;;;;;;;5066376;28;20009;-86
2021/06/07 07:14:26;;;;;;;11.98;6.80;;;;;;;;;;5057545;28;20028;-87
2021/06/07 07:16:52;;;;;;;12.57;6.57;;;;;;;;;;5068245;28;20099;-86
2021/06/07 07:19:20;;;;;;;13.45;6.47;;;;;;;;;;5066103;28;20031;-86
2021/06/07 07:21:45;;;;;;;12.95;6.40;;;;;;;;;;5060155;28;20033;-87
2021/06/07 07:24:10;;;;;;;12.68;6.75;;;;;;;;;;5067214;28;20027;-86
2021/06/07 07:26:36;;;;;;;12.27;7.30;;;;;;;;;;5061624;28;20021;-86
2021/06/07 07:29:01;;;;;;;11.93;7.45;;;;;;;;;;5070690;28;20364;-86
2021/06/07 07:31:26;;;;;;;12.10;7.20;;;;;;;;;;5060144;28;20494;-87
2021/06/07 07:33:51;;;;;;;12.20;7.20;;;;;;;;;;5071119;28;20078;-87
2021/06/07 07:36:16;;;;;;;15.70;6.60;;;;;;;;;;5067007;28;20020;-86
2021/06/07 07:38:42;;;;;;;12.10;7.20;;;;;;;;;;5046912;28;20020;-87
2021/06/07 07:41:07;;;;;;;13.30;6.50;;;;;;;;;;5058583;28;20476;-87
2021/06/07 07:43:32;;;;;;;15.82;6.20;;;;;;;;;;5063355;28;20020;-87
2021/06/07 07:45:59;;;;;;;13.05;6.25;;;;;;;;;;5072230;28;20024;-87
2021/06/07 07:48:24;;;;;;;15.52;7.03;;;;;;;;;;5059259;28;20029;-86
2021/06/07 07:50:49;;;;;;;21.33;7.10;;;;;;;;;;5070793;28;20379;-87
2021/06/07 07:53:15;;;;;;;14.13;7.82;;;;;;;;;;5057239;28;20021;-87
2021/06/07 07:55:40;;;;;;;16.98;7.07;;;;;;;;;;5070512;28;20031;-87
2021/06/07 07:58:10;;;;;;;17.08;8.25;;;;;;;;;;5064640;28;20032;-86
2021/06/07 08:00:35;;;;;;;14.55;7.88;;;;;;;;;;5066296;28;20067;-87
2021/06/07 08:03:01;;;;;;;14.30;7.65;;;;;;;;;;5062473;28;20048;-87
2021/06/07 08:05:26;;;;;;;13.55;7.07;;;;;;;;;;5074412;28;20475;-87
2021/06/07 08:07:52;;;;;;;14.80;7.30;;;;;;;;;;5068523;28;20454;-87
2021/06/07 08:10:17;;;;;;;15.10;7.63;;;;;;;;;;5058146;28;20021;-86
2021/06/07 08:12:42;;;;;;;8.85;6.05;;;;;;;;;;5046516;28;20023;-86
2021/06/07 08:15:08;;;;;;;14.48;7.65;;;;;;;;;;5074370;28;20016;-86
2021/06/07 08:17:33;;;;;;;14.93;7.63;;;;;;;;;;5066586;28;20506;-86
2021/06/07 08:19:58;;;;;;;17.20;8.55;;;;;;;;;;5074367;28;20021;-87
2021/06/07 08:22:24;;;;;;;13.82;7.15;;;;;;;;;;5072857;28;20380;-86
2021/06/07 08:24:49;;;;;;;16.13;6.82;;;;;;;;;;5061509;28;20016;-87
2021/06/07 08:27:14;;;;;;;14.63;7.47;;;;;;;;;;5068427;28;20024;-87
2021/06/07 08:29:39;;;;;;;12.95;7.60;;;;;;;;;;5060255;28;20025;-87
2021/06/07 08:32:04;;;;;;;14.68;7.07;;;;;;;;;;5063221;28;20023;-87
2021/06/07 08:34:30;;;;;;;13.98;7.55;;;;;;;;;;5065485;28;20098;-86
2021/06/07 08:36:55;;;;;;;16.25;8.27;;;;;;;;;;5068815;28;20445;-87
2021/06/07 08:39:20;;;;;;;12.73;7.60;;;;;;;;;;5065360;28;20028;-88
2021/06/07 08:41:46;;;;;;;13.57;7.70;;;;;;;;;;5060162;28;20119;-88
2021/06/07 08:44:11;;;;;;;10.02;6.75;;;;;;;;;;5074293;28;20032;-87
2021/06/07 08:46:37;;;;;;;12.45;5.82;;;;;;;;;;5060066;28;20032;-88
2021/06/07 08:49:02;;;;;;;12.18;6.40;;;;;;;;;;5066980;28;20012;-88
2021/06/07 08:51:28;;;;;;;9.30;5.82;;;;;;;;;;5067027;28;20521;-87
2021/06/07 08:53:54;;;;;;;10.52;5.93;;;;;;;;;;5058541;28;20104;-87
2021/06/07 08:56:19;;;;;;;12.60;6.32;;;;;;;;;;5055334;28;20053;-87
2021/06/07 08:58:47;;;;;;;8.73;5.97;;;;;;;;;;5053823;28;20056;-88
2021/06/07 09:01:12;;;;;;;10.00;6.05;;;;;;;;;;5053018;28;20017;-87
2021/06/07 09:03:38;;;;;;;11.07;6.47;;;;;;;;;;5054696;28;20032;-87
2021/06/07 09:06:03;;;;;;;12.20;6.75;;;;;;;;;;5053411;28;20039;-88
2021/06/07 09:08:36;;;;;;;9.38;5.93;;;;;;;;;;5054541;28;20029;-88
2021/06/07 09:11:15;;;;;;;12.07;5.93;;;;;;;;;;5040277;28;20024;-88
2021/06/07 09:13:40;;;;;;;9.63;6.53;;;;;;;;;;5054749;28;20020;-88
2021/06/07 09:16:06;;;;;;;11.57;7.10;;;;;;;;;;5053248;28;20487;-87
2021/06/07 09:18:33;;;;;;;10.20;6.65;;;;;;;;;;5052958;28;20024;-88
2021/06/07 09:21:00;;;;;;;12.95;6.80;;;;;;;;;;5052235;28;20155;-88
2021/06/07 09:23:36;;;;;;;8.80;5.55;;;;;;;;;;5054605;28;20021;-87
2021/06/07 09:26:01;;;;;;;10.57;6.07;;;;;;;;;;5068334;28;20028;-88
2021/06/07 09:28:26;;;;;;;15.60;5.75;;;;;;;;;;5073311;28;20460;-88
2021/06/07 09:30:54;;;;;;;7.65;5.00;;;;;;;;;;5061766;28;20082;-88
2021/06/07 09:33:34;;;;;;;9.40;6.07;;;;;;;;;;5069412;28;20016;-88
2021/06/07 09:36:11;;;;;;;8.55;5.85;;;;;;;;;;5072947;28;20020;-87
2021/06/07 09:38:55;;;;;;;8.85;6.28;;;;;;;;;;5060002;28;20082;-89
2021/06/07 09:41:20;;;;;;;12.35;6.68;;;;;;;;;;5073014;28;20476;-88
2021/06/07 09:43:47;;;;;;;15.18;5.60;;;;;;;;;;5072507;28;20029;-87
2021/06/07 09:46:12;;;;;;;11.80;6.63;;;;;;;;;;5064129;28;20027;-87
2021/06/07 09:48:37;;;;;;;12.35;5.78;;;;;;;;;;5070444;28;20454;-88
2021/06/07 09:51:03;;;;;;;14.52;7.13;;;;;;;;;;5073204;28;20035;-88
2021/06/07 09:53:38;;;;;;;10.35;6.63;;;;;;;;;;5059583;28;20364;-88
2021/06/07 09:56:04;;;;;;;11.02;5.28;;;;;;;;;;5064467;28;20017;-88
2021/06/07 09:58:30;;;;;;;7.38;4.68;;;;;;;;;;5066678;28;20020;-88
2021/06/07 10:00:55;;;;;;;12.90;5.47;;;;;;;;;;5060631;28;20047;-87
2021/06/07 10:03:26;;;;;;;10.90;5.28;;;;;;;;;;5072257;28;20016;-87
2021/06/07 10:05:53;;;;;;;9.87;5.17;;;;;;;;;;5064391;28;20352;-88
2021/06/07 10:08:19;;;;;;;6.40;4.82;;;;;;;;;;5072293;28;20752;-88
2021/06/07 10:10:44;;;;;;;7.93;4.53;;;;;;;;;;5072592;28;20471;-88
2021/06/07 10:13:11;;;;;;;9.18;4.00;;;;;;;;;;5070404;28;20025;-88
2021/06/07 10:15:44;;;;;;;6.72;4.55;;;;;;;;;;5067490;28;20162;-87
2021/06/07 10:18:10;;;;;;;6.63;3.80;;;;;;;;;;5062598;28;20021;-88
2021/06/07 10:23:18;;;;;;;5.55;3.30;;;;;;;;;;5062196;28;20032;-88
2021/06/07 10:25:43;;;;;;;10.73;3.63;;;;;;;;;;5071926;28;20017;-87
2021/06/07 10:28:08;;;;;;;5.60;3.30;;;;;;;;;;5071499;28;20030;-88
2021/06/07 10:30:37;;;;;;;8.25;3.10;;;;;;;;;;5072079;28;20348;-88
2021/06/07 10:33:22;;;;;;;4.70;2.75;;;;;;;;;;5100963;28;20447;-88
2021/06/07 10:35:47;;;;;;;8.20;3.40;;;;;;;;;;5061870;28;20025;-87
2021/06/07 10:38:12;;;;;;;4.88;3.30;;;;;;;;;;5064726;28;20102;-88
2021/06/07 10:40:39;;;;;;;3.72;2.58;;;;;;;;;;5051574;28;20033;-88
2021/06/07 10:43:05;;;;;;;5.53;2.88;;;;;;;;;;5051743;28;20028;-88
2021/06/07 10:45:32;;;;;;;6.20;3.22;;;;;;;;;;5048211;28;20123;-88
2021/06/07 10:47:58;;;;;;;6.78;2.85;;;;;;;;;;5061460;28;20068;-86
2021/06/07 10:50:25;;;;;;;6.57;2.88;;;;;;;;;;5052822;28;20768;-85
2021/06/07 10:52:51;;;;;;;3.63;2.45;;;;;;;;;;5052608;28;20021;-87
2021/06/07 10:55:18;;;;;;;4.22;2.42;;;;;;;;;;5052626;28;20017;-86
2021/06/07 10:57:46;;;;;;;4.90;2.70;;;;;;;;;;5052190;28;20044;-87
2021/06/07 11:00:16;;;;;;;7.72;3.60;;;;;;;;;;5067240;28;20024;-86
2021/06/07 11:02:43;;;;;;;8.15;3.28;;;;;;;;;;5053187;28;20039;-87
2021/06/07 11:05:28;;;;;;;5.30;3.33;;;;;;;;;;5050756;28;20085;-86
2021/06/07 11:08:03;;;;;;;5.57;3.00;;;;;;;;;;5058851;28;20047;-87
2021/06/07 11:10:35;;;;;;;7.25;2.90;;;;;;;;;;5063402;28;20021;-86
2021/06/07 11:13:10;;;;;;;4.78;2.55;;;;;;;;;;5058714;28;20056;-87
2021/06/07 11:15:42;;;;;;;7.45;3.58;;;;;;;;;;5048488;28;20127;-87
2021/06/07 11:18:38;;;;;;;6.43;3.70;;;;;;;;;;5059374;28;20426;-86
2021/06/07 11:21:06;;;;;;;6.75;2.58;;;;;;;;;;5057812;28;20024;-87
2021/06/07 11:23:33;;;;;;;4.53;2.85;;;;;;;;;;5055969;28;20029;-87
2021/06/07 11:25:59;;;;;;;6.13;2.30;;;;;;;;;;5053648;28;20021;-87
2021/06/07 11:28:39;;;;;;;2.85;2.10;;;;;;;;;;5067261;28;20017;-87
2021/06/07 11:31:06;;;;;;;4.00;2.95;;;;;;;;;;5052498;28;20028;-86
2021/06/07 11:33:49;;;;;;;4.30;2.70;;;;;;;;;;5058688;28;20025;-87
2021/06/07 11:36:41;;;;;;;5.72;3.35;;;;;;;;;;5063040;28;20021;-86
2021/06/07 11:39:08;;;;;;;4.47;2.80;;;;;;;;;;5056872;28;20131;-87
2021/06/07 11:41:41;;;;;;;6.05;3.08;;;;;;;;;;5059855;28;20440;-86
2021/06/07 11:44:06;;;;;;;5.20;3.65;;;;;;;;;;5064011;28;20072;-87
2021/06/07 11:46:31;;;;;;;5.65;4.03;;;;;;;;;;5056886;28;20491;-87
2021/06/07 11:49:17;;;;;;;5.90;3.95;;;;;;;;;;5065337;28;20023;-87
2021/06/07 11:51:43;;;;;;;6.40;4.30;;;;;;;;;;5068596;28;20028;-87
2021/06/07 11:54:24;;;;;;;7.20;3.65;;;;;;;;;;5073166;28;20054;-88
2021/06/07 11:56:56;;;;;;;9.18;3.92;;;;;;;;;;5055532;28;20524;-86
2021/06/07 11:59:22;;;;;;;7.13;3.90;;;;;;;;;;5054813;28;20037;-87
2021/06/07 12:01:47;;;;;;;5.15;3.03;;;;;;;;;;5053947;28;20025;-87
2021/06/07 12:04:31;;;;;;;5.60;3.03;;;;;;;;;;5076033;28;20043;-88
2021/06/07 12:07:00;;;;;;;5.82;2.78;;;;;;;;;;5055306;28;20086;-88
2021/06/07 12:09:25;;;;;;;4.28;2.75;;;;;;;;;;5054549;28;20017;-88
2021/06/07 12:11:52;;;;;;;7.10;3.17;;;;;;;;;;5054418;28;20345;-88
2021/06/07 12:14:23;;;;;;;4.82;2.90;;;;;;;;;;5055509;28;20024;-87
2021/06/07 12:16:48;;;;;;;11.50;3.72;;;;;;;;;;5055736;28;20036;-87
2021/06/07 12:19:14;;;;;;;10.20;4.05;;;;;;;;;;5054700;28;20021;-88
2021/06/07 12:21:39;;;;;;;13.57;3.78;;;;;;;;;;5054941;28;20349;-87
2021/06/07 12:24:08;;;;;;;8.57;3.22;;;;;;;;;;5058765;28;20067;-88
2021/06/07 12:29:34;;;;;;;9.57;3.47;;;;;;;;;;5075995;28;20477;-87
2021/06/07 12:32:11;;;;;;;7.57;3.58;;;;;;;;;;5041205;28;20449;-88
2021/06/07 12:34:38;;;;;;;8.38;3.58;;;;;;;;;;5068590;28;20444;-88
2021/06/07 12:37:03;;;;;;;6.95;3.22;;;;;;;;;;5067956;28;20024;-88
2021/06/07 12:39:29;;;;;;;6.50;3.40;;;;;;;;;;5066880;28;20024;-88
2021/06/07 12:41:54;;;;;;;5.13;3.38;;;;;;;;;;5075298;28;20013;-88
2021/06/07 12:44:20;;;;;;;6.13;3.25;;;;;;;;;;5074208;28;20029;-87
2021/06/07 12:46:55;;;;;;;5.30;2.95;;;;;;;;;;5071510;28;20036;-88
2021/06/07 12:49:38;;;;;;;4.47;2.85;;;;;;;;;;5073537;28;20013;-88
2021/06/07 12:52:05;;;;;;;5.13;3.25;;;;;;;;;;5059981;28;20017;-87
2021/06/07 12:54:31;;;;;;;5.07;3.05;;;;;;;;;;5074296;28;20027;-88
2021/06/07 12:57:00;;;;;;;8.05;2.60;;;;;;;;;;5073341;28;20109;-88
2021/06/07 12:59:28;;;;;;;5.50;2.45;;;;;;;;;;5064814;28;20435;-88
2021/06/07 13:01:54;;;;;;;6.97;3.33;;;;;;;;;;5059623;28;20021;-88
2021/06/07 13:04:39;;;;;;;7.57;3.08;;;;;;;;;;5060900;28;20459;-88
2021/06/07 13:07:22;;;;;;;3.83;2.80;;;;;;;;;;5069498;28;20033;-87
2021/06/07 13:09:49;;;;;;;5.15;3.03;;;;;;;;;;5064663;28;20529;-88
2021/06/07 13:12:22;;;;;;;6.88;3.03;;;;;;;;;;5073537;28;20027;-88
2021/06/07 13:14:52;;;;;;;5.07;2.97;;;;;;;;;;5073416;28;20020;-88
2021/06/07 13:17:19;;;;;;;7.55;3.50;;;;;;;;;;5070984;28;20104;-87
2021/06/07 13:19:50;;;;;;;5.35;2.63;;;;;;;;;;5061662;28;20028;-87
2021/06/07 13:22:16;;;;;;;5.90;2.60;;;;;;;;;;5055065;28;20028;-88
2021/06/07 13:24:42;;;;;;;4.40;2.78;;;;;;;;;;5073273;28;20107;-89
2021/06/07 13:27:07;;;;;;;5.22;2.80;;;;;;;;;;5060929;28;20429;-88
2021/06/07 13:29:36;;;;;;;3.50;2.60;;;;;;;;;;5069301;28;20020;-88
2021/06/07 13:32:11;;;;;;;7.90;2.80;;;;;;;;;;5063188;28;20023;-88
2021/06/07 13:34:47;;;;;;;4.28;2.50;;;;;;;;;;5070484;28;20416;-88
2021/06/07 13:37:17;;;;;;;4.97;3.22;;;;;;;;;;5066987;28;20020;-88
2021/06/07 13:39:43;;;;;;;6.65;3.22;;;;;;;;;;5066032;28;20028;-88
2021/06/07 13:42:09;;;;;;;5.15;2.78;;;;;;;;;;5051430;28;20017;-87
2021/06/07 13:44:50;;;;;;;6.13;2.50;;;;;;;;;;5078821;28;20029;-88
2021/06/07 13:47:20;;;;;;;6.75;2.58;;;;;;;;;;5068759;28;20082;-88
2021/06/07 13:49:57;;;;;;;4.55;2.40;;;;;;;;;;5048438;28;20345;-88
2021/06/07 13:52:22;;;;;;;6.10;2.20;;;;;;;;;;5042384;28;20025;-87
2021/06/07 13:54:54;;;;;;;7.35;2.83;;;;;;;;;;5049104;28;20028;-87
2021/06/07 13:57:19;;;;;;;8.30;3.08;;;;;;;;;;5052158;28;20443;-88
2021/06/07 13:59:44;;;;;;;8.02;2.53;;;;;;;;;;5049623;28;20059;-89
2021/06/07 14:02:09;;;;;;;4.05;2.55;;;;;;;;;;5049352;28;20070;-87
2021/06/07 14:04:34;;;;;;;4.70;2.08;;;;;;;;;;5045836;28;20032;-87
2021/06/07 14:06:59;;;;;;;4.85;2.00;;;;;;;;;;5044014;28;20029;-89
2021/06/07 14:09:29;;;;;;;2.80;2.40;;;;;;;;;;5043285;28;20068;-88
2021/06/07 14:11:55;;;;;;;3.78;2.47;;;;;;;;;;5046242;28;20040;-88
2021/06/07 14:14:22;;;;;;;2.83;2.17;;;;;;;;;;5051495;28;20020;-87
2021/06/07 14:16:47;;;;;;;4.20;2.50;;;;;;;;;;5051195;28;20017;-88
2021/06/07 14:19:12;;;;;;;2.85;2.28;;;;;;;;;;5050502;28;20028;-87
2021/06/07 14:24:38;;;;;;;4.65;2.00;;;;;;;;;;5047553;28;20028;-88
2021/06/07 14:27:04;;;;;;;6.10;2.28;;;;;;;;;;5067108;28;20028;-88
2021/06/07 14:29:29;;;;;;;4.20;2.17;;;;;;;;;;5056377;28;20024;-87
2021/06/07 14:31:55;;;;;;;3.75;1.83;;;;;;;;;;5054050;28;20623;-88
2021/06/07 14:34:20;;;;;;;3.38;2.13;;;;;;;;;;5064499;28;20024;-88
2021/06/07 14:36:46;;;;;;;4.63;3.13;;;;;;;;;;5053906;28;20383;-89
2021/06/07 14:39:11;;;;;;;3.53;2.03;;;;;;;;;;5060233;28;20343;-89
2021/06/07 14:41:37;;;;;;;3.47;2.33;;;;;;;;;;5054257;28;20017;-89
2021/06/07 14:44:02;;;;;;;4.47;2.13;;;;;;;;;;5054837;28;20025;-89
2021/06/07 14:46:27;;;;;;;3.95;2.25;;;;;;;;;;5048466;28;20056;-89